sensor_id;sensor_type;location;lat;lon;timestamp;temperature;humidity
69731;SHT31;56996;48.138;11.538;2023-06-01T00:02:03;18.17;50.16
69731;SHT31;56996;48.138;11.538;2023-06-01T00:04:30;18.11;50.62
69731;SHT31;56996;48.138;11.538;2023-06-01T00:06:57;18.08;50.60
69731;SHT31;56996;48.138;11.538;2023-06-01T00:09:27;18.05;50.62
69731;SHT31;56996;48.138;11.538;2023-06-01T00:11:54;18.00;50.94
69731;SHT31;56996;48.138;11.538;2023-06-01T00:14:21;17.97;50.77
69731;SHT31;56996;48.138;11.538;2023-06-01T00:16:47;17.93;50.84
69731;SHT31;56996;48.138;11.538;2023-06-01T00:19:14;17.93;50.84
69731;SHT31;56996;48.138;11.538;2023-06-01T00:21:41;17.90;51.12
69731;SHT31;56996;48.138;11.538;2023-06-01T00:24:08;17.87;51.11
69731;SHT31;56996;48.138;11.538;2023-06-01T00:26:35;17.85;51.09
69731;SHT31;56996;48.138;11.538;2023-06-01T00:29:01;17.85;51.14
69731;SHT31;56996;48.138;11.538;2023-06-01T00:31:28;17.83;51.26
69731;SHT31;56996;48.138;11.538;2023-06-01T00:33:55;17.81;51.31
69731;SHT31;56996;48.138;11.538;2023-06-01T00:36:21;17.76;51.56
69731;SHT31;56996;48.138;11.538;2023-06-01T00:38:48;17.73;51.55
69731;SHT31;56996;48.138;11.538;2023-06-01T00:41:15;17.71;51.68
69731;SHT31;56996;48.138;11.538;2023-06-01T00:43:42;17.69;51.92
69731;SHT31;56996;48.138;11.538;2023-06-01T00:46:08;17.64;51.97
69731;SHT31;56996;48.138;11.538;2023-06-01T00:48:36;17.62;51.97
69731;SHT31;56996;48.138;11.538;2023-06-01T00:51:03;17.58;52.21
69731;SHT31;56996;48.138;11.538;2023-06-01T00:53:30;17.54;52.43
69731;SHT31;56996;48.138;11.538;2023-06-01T00:55:57;17.52;52.25
69731;SHT31;56996;48.138;11.538;2023-06-01T00:58:23;17.51;52.38
69731;SHT31;56996;48.138;11.538;2023-06-01T01:00:50;17.49;52.35
69731;SHT31;56996;48.138;11.538;2023-06-01T01:03:20;17.46;52.64
69731;SHT31;56996;48.138;11.538;2023-06-01T01:05:47;17.42;53.13
69731;SHT31;56996;48.138;11.538;2023-06-01T01:11:06;17.32;52.96
69731;SHT31;56996;48.138;11.538;2023-06-01T01:13:43;17.29;53.13
69731;SHT31;56996;48.138;11.538;2023-06-01T01:16:27;17.25;53.37
69731;SHT31;56996;48.138;11.538;2023-06-01T01:22:07;17.23;53.25
69731;SHT31;56996;48.138;11.538;2023-06-01T01:27:44;17.16;53.53
69731;SHT31;56996;48.138;11.538;2023-06-01T01:30:28;17.17;53.48
69731;SHT31;56996;48.138;11.538;2023-06-01T01:32:57;17.15;53.61
69731;SHT31;56996;48.138;11.538;2023-06-01T01:35:24;17.13;53.56
69731;SHT31;56996;48.138;11.538;2023-06-01T01:37:54;17.11;53.78
69731;SHT31;56996;48.138;11.538;2023-06-01T01:40:23;17.10;53.94
69731;SHT31;56996;48.138;11.538;2023-06-01T01:42:50;17.08;53.96
69731;SHT31;56996;48.138;11.538;2023-06-01T01:45:17;17.04;54.20
69731;SHT31;56996;48.138;11.538;2023-06-01T01:48:03;17.02;54.34
69731;SHT31;56996;48.138;11.538;2023-06-01T01:50:41;16.96;54.46
69731;SHT31;56996;48.138;11.538;2023-06-01T01:53:17;16.93;54.51
69731;SHT31;56996;48.138;11.538;2023-06-01T01:55:47;16.90;54.69
69731;SHT31;56996;48.138;11.538;2023-06-01T01:58:16;16.87;54.99
69731;SHT31;56996;48.138;11.538;2023-06-01T02:00:44;16.83;55.14
69731;SHT31;56996;48.138;11.538;2023-06-01T02:03:14;16.81;54.92
69731;SHT31;56996;48.138;11.538;2023-06-01T02:05:43;16.80;54.94
69731;SHT31;56996;48.138;11.538;2023-06-01T02:08:11;16.77;55.10
69731;SHT31;56996;48.138;11.538;2023-06-01T02:10:39;16.75;55.11
69731;SHT31;56996;48.138;11.538;2023-06-01T02:13:07;16.71;55.12
69731;SHT31;56996;48.138;11.538;2023-06-01T02:15:34;16.70;54.93
69731;SHT31;56996;48.138;11.538;2023-06-01T02:18:00;16.69;55.00
69731;SHT31;56996;48.138;11.538;2023-06-01T02:20:28;16.65;55.11
69731;SHT31;56996;48.138;11.538;2023-06-01T02:22:55;16.60;55.15
69731;SHT31;56996;48.138;11.538;2023-06-01T02:25:22;16.58;55.42
69731;SHT31;56996;48.138;11.538;2023-06-01T02:27:48;16.54;55.29
69731;SHT31;56996;48.138;11.538;2023-06-01T02:30:15;16.53;55.46
69731;SHT31;56996;48.138;11.538;2023-06-01T02:32:42;16.47;55.53
69731;SHT31;56996;48.138;11.538;2023-06-01T02:35:11;16.44;55.68
69731;SHT31;56996;48.138;11.538;2023-06-01T02:37:38;16.40;56.03
69731;SHT31;56996;48.138;11.538;2023-06-01T02:40:05;16.38;55.90
69731;SHT31;56996;48.138;11.538;2023-06-01T02:42:38;16.37;56.06
69731;SHT31;56996;48.138;11.538;2023-06-01T02:45:05;16.35;55.81
69731;SHT31;56996;48.138;11.538;2023-06-01T02:47:33;16.36;55.86
69731;SHT31;56996;48.138;11.538;2023-06-01T02:50:00;16.35;56.00
69731;SHT31;56996;48.138;11.538;2023-06-01T02:52:28;16.33;56.12
69731;SHT31;56996;48.138;11.538;2023-06-01T02:54:55;16.29;56.16
69731;SHT31;56996;48.138;11.538;2023-06-01T02:57:42;16.27;56.20
69731;SHT31;56996;48.138;11.538;2023-06-01T03:00:09;16.24;56.27
69731;SHT31;56996;48.138;11.538;2023-06-01T03:02:42;16.20;56.34
69731;SHT31;56996;48.138;11.538;2023-06-01T03:05:11;16.17;56.45
69731;SHT31;56996;48.138;11.538;2023-06-01T03:07:45;16.14;56.53
69731;SHT31;56996;48.138;11.538;2023-06-01T03:10:19;16.14;56.29
69731;SHT31;56996;48.138;11.538;2023-06-01T03:12:56;16.14;56.26
69731;SHT31;56996;48.138;11.538;2023-06-01T03:15:23;16.19;56.18
69731;SHT31;56996;48.138;11.538;2023-06-01T03:17:50;16.19;56.25
69731;SHT31;56996;48.138;11.538;2023-06-01T03:20:17;16.19;56.07
69731;SHT31;56996;48.138;11.538;2023-06-01T03:22:45;16.19;56.10
69731;SHT31;56996;48.138;11.538;2023-06-01T03:25:12;16.18;56.07
69731;SHT31;56996;48.138;11.538;2023-06-01T03:27:39;16.17;56.05
69731;SHT31;56996;48.138;11.538;2023-06-01T03:30:08;16.19;56.03
69731;SHT31;56996;48.138;11.538;2023-06-01T03:32:37;16.20;55.96
69731;SHT31;56996;48.138;11.538;2023-06-01T03:35:07;16.17;56.16
69731;SHT31;56996;48.138;11.538;2023-06-01T03:37:36;16.14;56.28
69731;SHT31;56996;48.138;11.538;2023-06-01T03:40:05;16.11;56.19
69731;SHT31;56996;48.138;11.538;2023-06-01T03:42:44;16.11;56.17
69731;SHT31;56996;48.138;11.538;2023-06-01T03:45:13;16.10;56.19
69731;SHT31;56996;48.138;11.538;2023-06-01T03:47:42;16.08;55.95
69731;SHT31;56996;48.138;11.538;2023-06-01T03:50:09;16.10;56.02
69731;SHT31;56996;48.138;11.538;2023-06-01T03:52:37;16.08;55.95
69731;SHT31;56996;48.138;11.538;2023-06-01T03:55:05;16.08;55.83
69731;SHT31;56996;48.138;11.538;2023-06-01T03:58:05;16.10;55.81
69731;SHT31;56996;48.138;11.538;2023-06-01T04:00:34;16.10;55.82
69731;SHT31;56996;48.138;11.538;2023-06-01T04:03:01;16.08;55.77
69731;SHT31;56996;48.138;11.538;2023-06-01T04:05:33;16.08;55.94
69731;SHT31;56996;48.138;11.538;2023-06-01T04:08:03;16.07;55.93
69731;SHT31;56996;48.138;11.538;2023-06-01T04:10:30;16.08;55.87
69731;SHT31;56996;48.138;11.538;2023-06-01T04:12:57;16.11;55.72
69731;SHT31;56996;48.138;11.538;2023-06-01T04:15:26;16.14;55.67
69731;SHT31;56996;48.138;11.538;2023-06-01T04:17:53;16.17;55.63
69731;SHT31;56996;48.138;11.538;2023-06-01T04:20:20;16.17;55.71
69731;SHT31;56996;48.138;11.538;2023-06-01T04:22:48;16.17;55.64
69731;SHT31;56996;48.138;11.538;2023-06-01T04:25:15;16.19;55.60
69731;SHT31;56996;48.138;11.538;2023-06-01T04:27:48;16.22;55.47
69731;SHT31;56996;48.138;11.538;2023-06-01T04:30:18;16.27;55.33
69731;SHT31;56996;48.138;11.538;2023-06-01T04:32:46;16.31;55.28
69731;SHT31;56996;48.138;11.538;2023-06-01T04:35:15;16.36;55.11
69731;SHT31;56996;48.138;11.538;2023-06-01T04:37:42;16.42;55.02
69731;SHT31;56996;48.138;11.538;2023-06-01T04:40:11;16.46;54.95
69731;SHT31;56996;48.138;11.538;2023-06-01T04:42:42;16.49;54.99
69731;SHT31;56996;48.138;11.538;2023-06-01T04:45:25;16.53;54.76
69731;SHT31;56996;48.138;11.538;2023-06-01T04:47:52;16.63;54.69
69731;SHT31;56996;48.138;11.538;2023-06-01T04:50:23;16.74;54.55
69731;SHT31;56996;48.138;11.538;2023-06-01T04:52:51;16.76;54.44
69731;SHT31;56996;48.138;11.538;2023-06-01T04:55:18;16.80;54.24
69731;SHT31;56996;48.138;11.538;2023-06-01T04:57:44;16.89;54.11
69731;SHT31;56996;48.138;11.538;2023-06-01T05:00:13;16.98;54.01
69731;SHT31;56996;48.138;11.538;2023-06-01T05:02:45;17.04;53.91
69731;SHT31;56996;48.138;11.538;2023-06-01T05:05:14;17.04;53.98
69731;SHT31;56996;48.138;11.538;2023-06-01T05:07:43;17.09;54.04
69731;SHT31;56996;48.138;11.538;2023-06-01T05:10:11;17.14;53.85
69731;SHT31;56996;48.138;11.538;2023-06-01T05:12:43;17.21;53.76
69731;SHT31;56996;48.138;11.538;2023-06-01T05:15:12;17.31;53.61
69731;SHT31;56996;48.138;11.538;2023-06-01T05:17:40;17.42;53.46
69731;SHT31;56996;48.138;11.538;2023-06-01T05:20:10;17.50;53.27
69731;SHT31;56996;48.138;11.538;2023-06-01T05:22:40;17.53;53.17
69731;SHT31;56996;48.138;11.538;2023-06-01T05:25:07;17.50;53.12
69731;SHT31;56996;48.138;11.538;2023-06-01T05:27:34;17.52;53.26
69731;SHT31;56996;48.138;11.538;2023-06-01T05:30:01;17.55;53.38
69731;SHT31;56996;48.138;11.538;2023-06-01T05:32:29;17.58;53.31
69731;SHT31;56996;48.138;11.538;2023-06-01T05:35:04;17.61;53.19
69731;SHT31;56996;48.138;11.538;2023-06-01T05:37:33;17.68;53.11
69731;SHT31;56996;48.138;11.538;2023-06-01T05:40:00;17.72;52.95
69731;SHT31;56996;48.138;11.538;2023-06-01T05:42:26;17.80;52.83
69731;SHT31;56996;48.138;11.538;2023-06-01T05:44:53;17.90;52.68
69731;SHT31;56996;48.138;11.538;2023-06-01T05:47:20;17.97;52.49
69731;SHT31;56996;48.138;11.538;2023-06-01T05:49:47;17.99;52.35
69731;SHT31;56996;48.138;11.538;2023-06-01T05:52:13;17.96;52.49
69731;SHT31;56996;48.138;11.538;2023-06-01T05:54:41;17.98;52.49
69731;SHT31;56996;48.138;11.538;2023-06-01T05:57:09;18.00;52.47
69731;SHT31;56996;48.138;11.538;2023-06-01T05:59:35;18.10;52.35
69731;SHT31;56996;48.138;11.538;2023-06-01T06:02:02;18.22;52.12
69731;SHT31;56996;48.138;11.538;2023-06-01T06:04:29;18.88;51.11
69731;SHT31;56996;48.138;11.538;2023-06-01T06:06:56;20.35;48.36
69731;SHT31;56996;48.138;11.538;2023-06-01T06:09:23;21.89;45.62
69731;SHT31;56996;48.138;11.538;2023-06-01T06:11:50;23.18;44.06
69731;SHT31;56996;48.138;11.538;2023-06-01T06:14:17;24.74;41.46
69731;SHT31;56996;48.138;11.538;2023-06-01T06:16:43;25.75;39.73
69731;SHT31;56996;48.138;11.538;2023-06-01T06:19:10;26.77;38.56
69731;SHT31;56996;48.138;11.538;2023-06-01T06:21:37;27.51;35.75
69731;SHT31;56996;48.138;11.538;2023-06-01T06:24:04;27.88;36.41
69731;SHT31;56996;48.138;11.538;2023-06-01T06:26:31;29.22;34.96
69731;SHT31;56996;48.138;11.538;2023-06-01T06:28:58;30.42;33.40
69731;SHT31;56996;48.138;11.538;2023-06-01T06:31:25;31.27;31.64
69731;SHT31;56996;48.138;11.538;2023-06-01T06:33:52;31.52;31.44
69731;SHT31;56996;48.138;11.538;2023-06-01T06:36:19;32.10;30.36
69731;SHT31;56996;48.138;11.538;2023-06-01T06:38:46;32.81;29.72
69731;SHT31;56996;48.138;11.538;2023-06-01T06:41:12;33.07;28.24
69731;SHT31;56996;48.138;11.538;2023-06-01T06:43:39;32.63;28.51
69731;SHT31;56996;48.138;11.538;2023-06-01T06:46:06;32.98;28.42
69731;SHT31;56996;48.138;11.538;2023-06-01T06:48:33;32.94;27.38
69731;SHT31;56996;48.138;11.538;2023-06-01T06:51:00;32.02;26.83
69731;SHT31;56996;48.138;11.538;2023-06-01T06:53:29;31.64;28.02
69731;SHT31;56996;48.138;11.538;2023-06-01T06:55:56;31.80;27.97
69731;SHT31;56996;48.138;11.538;2023-06-01T06:58:23;31.60;27.46
69731;SHT31;56996;48.138;11.538;2023-06-01T07:00:50;31.58;27.99
69731;SHT31;56996;48.138;11.538;2023-06-01T07:03:16;32.14;27.82
69731;SHT31;56996;48.138;11.538;2023-06-01T07:05:43;33.06;27.28
69731;SHT31;56996;48.138;11.538;2023-06-01T07:08:11;34.31;26.06
69731;SHT31;56996;48.138;11.538;2023-06-01T07:10:38;34.68;25.22
69731;SHT31;56996;48.138;11.538;2023-06-01T07:13:05;35.03;25.12
69731;SHT31;56996;48.138;11.538;2023-06-01T07:15:32;34.84;24.24
69731;SHT31;56996;48.138;11.538;2023-06-01T07:17:58;34.02;24.68
69731;SHT31;56996;48.138;11.538;2023-06-01T07:20:25;34.17;25.45
69731;SHT31;56996;48.138;11.538;2023-06-01T07:22:52;35.32;24.75
69731;SHT31;56996;48.138;11.538;2023-06-01T07:25:19;36.10;22.70
69731;SHT31;56996;48.138;11.538;2023-06-01T07:27:46;35.29;23.22
69731;SHT31;56996;48.138;11.538;2023-06-01T07:30:14;35.08;23.93
69731;SHT31;56996;48.138;11.538;2023-06-01T07:32:42;34.92;23.43
69731;SHT31;56996;48.138;11.538;2023-06-01T07:35:10;34.85;23.91
69731;SHT31;56996;48.138;11.538;2023-06-01T07:37:36;35.09;23.58
69731;SHT31;56996;48.138;11.538;2023-06-01T07:40:03;35.13;22.77
69731;SHT31;56996;48.138;11.538;2023-06-01T07:42:34;34.83;23.66
69731;SHT31;56996;48.138;11.538;2023-06-01T07:45:01;35.99;22.89
69731;SHT31;56996;48.138;11.538;2023-06-01T07:47:28;36.33;21.87
69731;SHT31;56996;48.138;11.538;2023-06-01T07:49:56;36.09;21.79
69731;SHT31;56996;48.138;11.538;2023-06-01T07:52:23;35.49;22.17
69731;SHT31;56996;48.138;11.538;2023-06-01T07:54:51;34.99;22.54
69731;SHT31;56996;48.138;11.538;2023-06-01T07:57:18;34.96;22.61
69731;SHT31;56996;48.138;11.538;2023-06-01T07:59:45;35.33;22.85
69731;SHT31;56996;48.138;11.538;2023-06-01T08:02:11;36.42;22.26
69731;SHT31;56996;48.138;11.538;2023-06-01T08:04:40;37.44;21.56
69731;SHT31;56996;48.138;11.538;2023-06-01T08:07:06;38.24;21.09
69731;SHT31;56996;48.138;11.538;2023-06-01T08:09:35;38.59;19.99
69731;SHT31;56996;48.138;11.538;2023-06-01T08:12:04;37.21;20.18
69731;SHT31;56996;48.138;11.538;2023-06-01T08:14:32;36.38;21.38
69731;SHT31;56996;48.138;11.538;2023-06-01T08:17:01;36.80;21.43
69731;SHT31;56996;48.138;11.538;2023-06-01T08:19:28;37.89;20.86
69731;SHT31;56996;48.138;11.538;2023-06-01T08:21:55;38.44;20.56
69731;SHT31;56996;48.138;11.538;2023-06-01T08:24:22;39.14;20.18
69731;SHT31;56996;48.138;11.538;2023-06-01T08:26:49;39.70;19.64
69731;SHT31;56996;48.138;11.538;2023-06-01T08:29:17;39.87;19.54
69731;SHT31;56996;48.138;11.538;2023-06-01T08:31:56;40.38;19.31
69731;SHT31;56996;48.138;11.538;2023-06-01T08:34:25;40.97;19.00
69731;SHT31;56996;48.138;11.538;2023-06-01T08:36:52;40.69;17.95
69731;SHT31;56996;48.138;11.538;2023-06-01T08:39:21;39.72;18.91
69731;SHT31;56996;48.138;11.538;2023-06-01T08:44:47;40.82;18.34
69731;SHT31;56996;48.138;11.538;2023-06-01T08:47:20;40.63;17.54
69731;SHT31;56996;48.138;11.538;2023-06-01T08:49:50;38.93;18.23
69731;SHT31;56996;48.138;11.538;2023-06-01T08:52:21;38.43;19.29
69731;SHT31;56996;48.138;11.538;2023-06-01T08:54:54;39.09;19.05
69731;SHT31;56996;48.138;11.538;2023-06-01T08:57:21;40.06;18.60
69731;SHT31;56996;48.138;11.538;2023-06-01T08:59:48;40.85;18.01
69731;SHT31;56996;48.138;11.538;2023-06-01T09:02:14;41.34;17.85
69731;SHT31;56996;48.138;11.538;2023-06-01T09:04:41;40.92;17.38
69731;SHT31;56996;48.138;11.538;2023-06-01T09:07:08;40.68;17.54
69731;SHT31;56996;48.138;11.538;2023-06-01T09:09:35;40.38;17.73
69731;SHT31;56996;48.138;11.538;2023-06-01T09:14:47;39.88;18.08
69731;SHT31;56996;48.138;11.538;2023-06-01T09:17:15;39.52;18.20
69731;SHT31;56996;48.138;11.538;2023-06-01T09:19:50;39.40;18.54
69731;SHT31;56996;48.138;11.538;2023-06-01T09:22:21;39.41;18.44
69731;SHT31;56996;48.138;11.538;2023-06-01T09:24:58;39.33;18.72
69731;SHT31;56996;48.138;11.538;2023-06-01T09:27:26;39.53;18.39
69731;SHT31;56996;48.138;11.538;2023-06-01T09:29:56;39.06;18.60
69731;SHT31;56996;48.138;11.538;2023-06-01T09:32:27;38.60;19.26
69731;SHT31;56996;48.138;11.538;2023-06-01T09:34:54;38.59;19.23
69731;SHT31;56996;48.138;11.538;2023-06-01T09:37:21;38.23;19.58
69731;SHT31;56996;48.138;11.538;2023-06-01T09:39:48;37.87;19.96
69731;SHT31;56996;48.138;11.538;2023-06-01T09:42:14;37.78;20.11
69731;SHT31;56996;48.138;11.538;2023-06-01T09:44:42;37.77;20.06
69731;SHT31;56996;48.138;11.538;2023-06-01T09:47:12;37.04;20.47
69731;SHT31;56996;48.138;11.538;2023-06-01T09:49:40;36.33;21.27
69731;SHT31;56996;48.138;11.538;2023-06-01T09:52:10;35.97;21.54
69731;SHT31;56996;48.138;11.538;2023-06-01T09:57:20;34.68;22.45
69731;SHT31;56996;48.138;11.538;2023-06-01T09:59:50;33.97;23.27
69731;SHT31;56996;48.138;11.538;2023-06-01T10:02:19;33.29;24.09
69731;SHT31;56996;48.138;11.538;2023-06-01T10:04:49;32.72;24.63
69731;SHT31;56996;48.138;11.538;2023-06-01T10:07:29;32.21;25.14
69731;SHT31;56996;48.138;11.538;2023-06-01T10:09:59;32.09;25.37
69731;SHT31;56996;48.138;11.538;2023-06-01T10:12:29;32.02;25.49
69731;SHT31;56996;48.138;11.538;2023-06-01T10:15:00;31.94;25.67
69731;SHT31;56996;48.138;11.538;2023-06-01T10:17:35;31.49;26.16
69731;SHT31;56996;48.138;11.538;2023-06-01T10:20:05;31.04;26.53
69731;SHT31;56996;48.138;11.538;2023-06-01T10:22:32;30.87;26.56
69731;SHT31;56996;48.138;11.538;2023-06-01T10:25:00;30.76;26.78
69731;SHT31;56996;48.138;11.538;2023-06-01T10:27:29;30.61;26.67
69731;SHT31;56996;48.138;11.538;2023-06-01T10:30:08;30.70;26.46
69731;SHT31;56996;48.138;11.538;2023-06-01T10:35:05;30.72;26.74
69731;SHT31;56996;48.138;11.538;2023-06-01T10:37:33;30.72;26.72
69731;SHT31;56996;48.138;11.538;2023-06-01T10:40:34;30.78;26.38
69731;SHT31;56996;48.138;11.538;2023-06-01T10:42:53;30.73;26.46
69731;SHT31;56996;48.138;11.538;2023-06-01T10:48:16;30.29;26.53
69731;SHT31;56996;48.138;11.538;2023-06-01T10:50:43;30.08;26.77
69731;SHT31;56996;48.138;11.538;2023-06-01T10:53:50;29.88;27.05
69731;SHT31;56996;48.138;11.538;2023-06-01T10:56:28;29.67;27.31
69731;SHT31;56996;48.138;11.538;2023-06-01T11:01:44;29.57;27.36
69731;SHT31;56996;48.138;11.538;2023-06-01T11:04:13;29.49;27.35
69731;SHT31;56996;48.138;11.538;2023-06-01T11:06:41;29.41;27.33
69731;SHT31;56996;48.138;11.538;2023-06-01T11:09:10;29.56;27.35
69731;SHT31;56996;48.138;11.538;2023-06-01T11:14:14;29.56;27.29
69731;SHT31;56996;48.138;11.538;2023-06-01T11:16:42;29.45;27.35
69731;SHT31;56996;48.138;11.538;2023-06-01T11:19:09;29.29;27.37
69731;SHT31;56996;48.138;11.538;2023-06-01T11:21:41;29.27;27.45
69731;SHT31;56996;48.138;11.538;2023-06-01T11:24:11;29.28;27.50
69731;SHT31;56996;48.138;11.538;2023-06-01T11:26:43;29.30;27.35
69731;SHT31;56996;48.138;11.538;2023-06-01T11:29:19;29.38;27.30
69731;SHT31;56996;48.138;11.538;2023-06-01T11:31:55;29.53;27.30
69731;SHT31;56996;48.138;11.538;2023-06-01T11:34:30;29.53;27.31
69731;SHT31;56996;48.138;11.538;2023-06-01T11:37:04;29.45;27.35
69731;SHT31;56996;48.138;11.538;2023-06-01T11:39:32;29.41;27.23
69731;SHT31;56996;48.138;11.538;2023-06-01T11:44:37;29.14;27.37
69731;SHT31;56996;48.138;11.538;2023-06-01T11:47:08;29.02;27.55
69731;SHT31;56996;48.138;11.538;2023-06-01T11:49:47;29.01;27.43
69731;SHT31;56996;48.138;11.538;2023-06-01T11:52:17;28.92;27.43
69731;SHT31;56996;48.138;11.538;2023-06-01T11:54:45;28.88;27.47
69731;SHT31;56996;48.138;11.538;2023-06-01T11:57:13;28.67;27.63
69731;SHT31;56996;48.138;11.538;2023-06-01T11:59:44;28.61;27.67
69731;SHT31;56996;48.138;11.538;2023-06-01T12:02:18;28.58;27.53
69731;SHT31;56996;48.138;11.538;2023-06-01T12:04:57;28.57;27.21
69731;SHT31;56996;48.138;11.538;2023-06-01T12:07:36;28.50;27.34
69731;SHT31;56996;48.138;11.538;2023-06-01T12:10:20;28.61;27.63
69731;SHT31;56996;48.138;11.538;2023-06-01T12:12:48;28.63;27.40
69731;SHT31;56996;48.138;11.538;2023-06-01T12:15:16;28.52;27.52
69731;SHT31;56996;48.138;11.538;2023-06-01T12:17:45;28.56;27.58
69731;SHT31;56996;48.138;11.538;2023-06-01T12:20:29;28.68;27.57
69731;SHT31;56996;48.138;11.538;2023-06-01T12:23:02;28.82;27.51
69731;SHT31;56996;48.138;11.538;2023-06-01T12:28:25;29.05;27.13
69731;SHT31;56996;48.138;11.538;2023-06-01T12:33:39;28.92;26.97
69731;SHT31;56996;48.138;11.538;2023-06-01T12:36:09;28.89;26.83
69731;SHT31;56996;48.138;11.538;2023-06-01T12:38:56;28.96;27.01
69731;SHT31;56996;48.138;11.538;2023-06-01T12:41:50;29.06;27.19
69731;SHT31;56996;48.138;11.538;2023-06-01T12:44:18;29.15;27.16
69731;SHT31;56996;48.138;11.538;2023-06-01T12:46:46;29.20;27.13
69731;SHT31;56996;48.138;11.538;2023-06-01T12:49:16;29.09;27.24
69731;SHT31;56996;48.138;11.538;2023-06-01T12:51:44;28.84;27.66
69731;SHT31;56996;48.138;11.538;2023-06-01T12:54:11;28.77;27.79
69731;SHT31;56996;48.138;11.538;2023-06-01T12:56:39;28.70;27.99
69731;SHT31;56996;48.138;11.538;2023-06-01T12:59:05;28.53;28.18
69731;SHT31;56996;48.138;11.538;2023-06-01T13:01:32;28.38;28.46
69731;SHT31;56996;48.138;11.538;2023-06-01T13:04:00;28.29;28.68
69731;SHT31;56996;48.138;11.538;2023-06-01T13:06:29;28.21;28.79
69731;SHT31;56996;48.138;11.538;2023-06-01T13:08:56;28.43;28.71
69731;SHT31;56996;48.138;11.538;2023-06-01T13:11:23;28.52;28.46
69731;SHT31;56996;48.138;11.538;2023-06-01T13:13:50;28.52;28.22
69731;SHT31;56996;48.138;11.538;2023-06-01T13:16:17;28.50;28.08
69731;SHT31;56996;48.138;11.538;2023-06-01T13:18:44;28.42;27.95
69731;SHT31;56996;48.138;11.538;2023-06-01T13:21:12;28.34;27.77
69731;SHT31;56996;48.138;11.538;2023-06-01T13:23:39;28.46;27.88
69731;SHT31;56996;48.138;11.538;2023-06-01T13:26:05;28.81;27.58
69731;SHT31;56996;48.138;11.538;2023-06-01T13:28:34;28.84;27.88
69731;SHT31;56996;48.138;11.538;2023-06-01T13:31:01;28.71;28.29
69731;SHT31;56996;48.138;11.538;2023-06-01T13:33:28;28.52;28.47
69731;SHT31;56996;48.138;11.538;2023-06-01T13:35:54;28.26;28.80
69731;SHT31;56996;48.138;11.538;2023-06-01T13:38:21;28.19;28.66
69731;SHT31;56996;48.138;11.538;2023-06-01T13:40:48;28.27;28.44
69731;SHT31;56996;48.138;11.538;2023-06-01T13:43:16;28.21;28.37
69731;SHT31;56996;48.138;11.538;2023-06-01T13:45:44;28.28;28.28
69731;SHT31;56996;48.138;11.538;2023-06-01T13:48:11;28.27;28.31
69731;SHT31;56996;48.138;11.538;2023-06-01T13:50:43;28.12;28.32
69731;SHT31;56996;48.138;11.538;2023-06-01T13:53:09;28.07;28.57
69731;SHT31;56996;48.138;11.538;2023-06-01T13:55:36;28.18;28.51
69731;SHT31;56996;48.138;11.538;2023-06-01T13:58:05;28.27;28.52
69731;SHT31;56996;48.138;11.538;2023-06-01T14:00:32;28.29;28.51
69731;SHT31;56996;48.138;11.538;2023-06-01T14:02:59;28.45;28.23
69731;SHT31;56996;48.138;11.538;2023-06-01T14:05:26;28.58;27.94
69731;SHT31;56996;48.138;11.538;2023-06-01T14:08:13;28.61;27.78
69731;SHT31;56996;48.138;11.538;2023-06-01T14:10:40;28.57;27.56
69731;SHT31;56996;48.138;11.538;2023-06-01T14:13:07;28.51;27.63
69731;SHT31;56996;48.138;11.538;2023-06-01T14:15:34;28.53;27.52
69731;SHT31;56996;48.138;11.538;2023-06-01T14:18:01;28.61;27.50
69731;SHT31;56996;48.138;11.538;2023-06-01T14:20:28;28.66;27.37
69731;SHT31;56996;48.138;11.538;2023-06-01T14:22:55;28.71;27.62
69731;SHT31;56996;48.138;11.538;2023-06-01T14:25:22;28.72;27.24
69731;SHT31;56996;48.138;11.538;2023-06-01T14:27:49;28.63;27.25
69731;SHT31;56996;48.138;11.538;2023-06-01T14:30:16;28.67;27.10
69731;SHT31;56996;48.138;11.538;2023-06-01T14:32:43;28.77;27.22
69731;SHT31;56996;48.138;11.538;2023-06-01T14:35:12;28.79;27.42
69731;SHT31;56996;48.138;11.538;2023-06-01T14:37:42;28.72;27.51
69731;SHT31;56996;48.138;11.538;2023-06-01T14:40:16;28.71;27.64
69731;SHT31;56996;48.138;11.538;2023-06-01T14:42:43;28.84;27.57
69731;SHT31;56996;48.138;11.538;2023-06-01T14:45:11;28.88;27.58
69731;SHT31;56996;48.138;11.538;2023-06-01T14:47:39;28.93;27.51
69731;SHT31;56996;48.138;11.538;2023-06-01T14:50:10;28.85;27.31
69731;SHT31;56996;48.138;11.538;2023-06-01T14:52:37;28.75;26.84
69731;SHT31;56996;48.138;11.538;2023-06-01T14:55:04;28.54;26.66
69731;SHT31;56996;48.138;11.538;2023-06-01T14:57:31;28.50;26.88
69731;SHT31;56996;48.138;11.538;2023-06-01T14:59:58;28.49;26.81
69731;SHT31;56996;48.138;11.538;2023-06-01T15:02:31;28.45;26.46
69731;SHT31;56996;48.138;11.538;2023-06-01T15:04:59;28.27;26.26
69731;SHT31;56996;48.138;11.538;2023-06-01T15:07:26;28.17;26.37
69731;SHT31;56996;48.138;11.538;2023-06-01T15:09:52;28.12;26.40
69731;SHT31;56996;48.138;11.538;2023-06-01T15:12:20;28.07;26.27
69731;SHT31;56996;48.138;11.538;2023-06-01T15:14:47;27.95;26.49
69731;SHT31;56996;48.138;11.538;2023-06-01T15:17:14;27.97;26.33
69731;SHT31;56996;48.138;11.538;2023-06-01T15:19:41;28.03;26.11
69731;SHT31;56996;48.138;11.538;2023-06-01T15:22:08;28.11;25.26
69731;SHT31;56996;48.138;11.538;2023-06-01T15:24:36;28.05;24.98
69731;SHT31;56996;48.138;11.538;2023-06-01T15:27:03;28.04;24.39
69731;SHT31;56996;48.138;11.538;2023-06-01T15:29:32;28.01;24.44
69731;SHT31;56996;48.138;11.538;2023-06-01T15:32:00;27.86;24.48
69731;SHT31;56996;48.138;11.538;2023-06-01T15:34:26;27.73;24.88
69731;SHT31;56996;48.138;11.538;2023-06-01T15:36:53;27.83;25.06
69731;SHT31;56996;48.138;11.538;2023-06-01T15:39:21;27.85;24.14
69731;SHT31;56996;48.138;11.538;2023-06-01T15:41:48;27.68;24.40
69731;SHT31;56996;48.138;11.538;2023-06-01T15:44:23;27.56;25.06
69731;SHT31;56996;48.138;11.538;2023-06-01T15:46:50;27.50;26.26
69731;SHT31;56996;48.138;11.538;2023-06-01T15:49:17;27.37;26.58
69731;SHT31;56996;48.138;11.538;2023-06-01T15:51:44;27.34;26.66
69731;SHT31;56996;48.138;11.538;2023-06-01T15:54:11;27.35;26.89
69731;SHT31;56996;48.138;11.538;2023-06-01T15:56:37;27.27;27.12
69731;SHT31;56996;48.138;11.538;2023-06-01T15:59:04;27.16;27.17
69731;SHT31;56996;48.138;11.538;2023-06-01T16:01:31;27.04;27.27
69731;SHT31;56996;48.138;11.538;2023-06-01T16:03:58;26.96;27.41